createdAt,value
2018-08-19T00:01:16.394Z,13.60
2018-08-19T00:03:45.198Z,13.60
2018-08-19T00:06:13.338Z,13.60
2018-08-19T00:08:41.509Z,13.50
2018-08-19T00:11:09.978Z,13.40
2018-08-19T00:13:38.802Z,13.30
2018-08-19T00:16:09.443Z,13.30
2018-08-19T00:18:37.960Z,13.20
2018-08-19T00:21:07.306Z,13.20
2018-08-19T00:23:40.802Z,13.00
2018-08-19T00:26:09.026Z,12.90
2018-08-19T00:28:37.245Z,12.80
2018-08-19T00:31:06.593Z,12.80
2018-08-19T00:33:35.143Z,12.80
2018-08-19T00:36:18.632Z,12.80
2018-08-19T00:38:46.845Z,12.80
2018-08-19T00:41:15.057Z,12.70
2018-08-19T00:43:43.281Z,12.70
2018-08-19T00:46:24.858Z,12.70
2018-08-19T00:48:53.448Z,12.60
2018-08-19T00:51:21.630Z,12.70
2018-08-19T00:53:49.867Z,12.60
2018-08-19T00:56:18.800Z,12.60
2018-08-19T00:58:46.992Z,12.70
2018-08-19T01:01:28.726Z,12.70
2018-08-19T01:03:57.587Z,12.70
2018-08-19T01:06:26.067Z,12.60
2018-08-19T01:08:54.254Z,12.60
2018-08-19T01:11:27.887Z,12.60
2018-08-19T01:13:56.109Z,12.60
2018-08-19T01:16:25.057Z,12.50
2018-08-19T01:18:58.734Z,12.60
2018-08-19T01:21:28.343Z,12.60
2018-08-19T01:23:57.266Z,12.60
2018-08-19T01:26:25.478Z,12.60
2018-08-19T01:28:56.605Z,12.50
2018-08-19T01:31:26.369Z,12.50
2018-08-19T01:33:54.541Z,12.40
2018-08-19T01:36:26.264Z,12.40
2018-08-19T01:38:54.514Z,12.40
2018-08-19T01:41:22.886Z,12.30
2018-08-19T01:44:06.508Z,12.30
2018-08-19T01:46:44.141Z,12.30
2018-08-19T01:49:12.933Z,12.30
2018-08-19T01:51:42.133Z,12.20
2018-08-19T01:54:18.111Z,12.10
2018-08-19T01:56:46.690Z,12.10
2018-08-19T01:59:14.846Z,12.10
2018-08-19T02:01:56.724Z,12.20
2018-08-19T02:04:24.950Z,12.20
2018-08-19T02:06:53.122Z,12.10
2018-08-19T02:09:21.669Z,12.00
2018-08-19T02:11:54.852Z,11.90
2018-08-19T02:14:23.562Z,11.90
2018-08-19T02:16:52.702Z,11.90
2018-08-19T02:19:20.890Z,11.80
2018-08-19T02:21:50.813Z,11.80
2018-08-19T02:24:19.207Z,11.80
2018-08-19T02:26:47.373Z,11.70
2018-08-19T02:29:30.510Z,11.70
2018-08-19T02:31:59.718Z,11.60
2018-08-19T02:34:35.077Z,11.60
2018-08-19T02:37:08.593Z,11.60
2018-08-19T02:39:38.844Z,11.50
2018-08-19T02:42:22.618Z,11.40
2018-08-19T02:44:52.541Z,11.40
2018-08-19T02:47:20.759Z,11.30
2018-08-19T02:49:48.938Z,11.40
2018-08-19T02:52:33.275Z,11.40
2018-08-19T02:55:02.620Z,11.40
2018-08-19T02:57:31.589Z,11.40
2018-08-19T03:00:00.663Z,11.40
2018-08-19T03:02:31.305Z,11.30
2018-08-19T03:05:00.303Z,11.40
2018-08-19T03:07:29.594Z,11.30
2018-08-19T03:10:03.450Z,11.30
2018-08-19T03:12:31.635Z,11.30
2018-08-19T03:14:59.847Z,11.30
2018-08-19T03:17:28.895Z,11.30
2018-08-19T03:19:58.021Z,11.30
2018-08-19T03:22:26.858Z,11.30
2018-08-19T03:24:55.484Z,11.30
2018-08-19T03:27:23.677Z,11.30
2018-08-19T03:29:53.462Z,11.30
2018-08-19T03:32:22.026Z,11.30
2018-08-19T03:34:50.902Z,11.40
2018-08-19T03:37:19.094Z,11.30
2018-08-19T03:39:47.293Z,11.40
2018-08-19T03:42:16.223Z,11.40
2018-08-19T03:44:44.883Z,11.30
2018-08-19T03:47:43.894Z,11.30
2018-08-19T03:50:17.453Z,11.30
2018-08-19T03:52:45.733Z,11.30
2018-08-19T03:55:30.677Z,11.20
2018-08-19T03:58:05.171Z,11.20
2018-08-19T04:00:39.925Z,11.30
2018-08-19T04:03:20.482Z,11.30
2018-08-19T04:05:56.279Z,11.30
2018-08-19T04:08:33.313Z,11.30
2018-08-19T04:11:04.759Z,11.30
2018-08-19T04:13:37.057Z,11.20
2018-08-19T04:16:08.718Z,11.20
2018-08-19T04:18:38.139Z,11.10
2018-08-19T04:21:08.201Z,11.10
2018-08-19T04:23:36.900Z,11.00
2018-08-19T04:26:05.414Z,11.00
2018-08-19T04:28:37.805Z,11.00
2018-08-19T04:31:12.069Z,11.00
2018-08-19T04:33:50.313Z,11.00
2018-08-19T04:36:19.804Z,11.10
2018-08-19T04:38:48.006Z,11.10
2018-08-19T04:41:16.442Z,11.10
2018-08-19T04:43:47.230Z,11.10
2018-08-19T04:46:16.158Z,11.20
2018-08-19T04:48:44.889Z,11.30
2018-08-19T04:51:13.078Z,11.30
2018-08-19T04:53:42.077Z,11.40
2018-08-19T04:56:10.362Z,11.50
2018-08-19T04:58:39.833Z,11.60
2018-08-19T05:01:08.064Z,11.60
2018-08-19T05:03:36.749Z,11.70
2018-08-19T05:06:04.938Z,11.70
2018-08-19T05:08:33.287Z,11.80
2018-08-19T05:11:01.308Z,11.90
2018-08-19T05:13:29.659Z,11.90
2018-08-19T05:15:58.477Z,12.00
2018-08-19T05:18:26.657Z,12.10
2018-08-19T05:21:03.147Z,12.10
2018-08-19T05:23:32.734Z,12.10
2018-08-19T05:26:00.944Z,12.20
2018-08-19T05:28:29.211Z,12.20
2018-08-19T05:30:57.301Z,12.30
2018-08-19T05:33:25.831Z,12.50
2018-08-19T05:35:54.049Z,12.60
2018-08-19T05:38:23.556Z,12.80
2018-08-19T05:40:57.275Z,13.00
2018-08-19T05:43:25.466Z,13.30
2018-08-19T05:45:57.630Z,13.50
2018-08-19T05:48:25.991Z,13.70
2018-08-19T05:50:54.794Z,14.00
2018-08-19T05:53:23.055Z,14.40
2018-08-19T05:55:51.535Z,15.30
2018-08-19T05:58:20.128Z,16.30
2018-08-19T06:01:02.954Z,17.40
2018-08-19T06:03:31.069Z,18.20
2018-08-19T06:05:59.757Z,19.00
2018-08-19T06:08:27.972Z,19.90
2018-08-19T06:10:56.213Z,20.60
2018-08-19T06:13:25.085Z,21.50
2018-08-19T06:15:53.304Z,22.40
2018-08-19T06:18:21.375Z,23.30
2018-08-19T06:20:49.542Z,24.00
2018-08-19T06:23:17.993Z,24.60
2018-08-19T06:25:46.174Z,24.90
2018-08-19T06:28:14.378Z,25.20
2018-08-19T06:30:42.590Z,25.20
2018-08-19T06:33:10.771Z,25.50
2018-08-19T06:35:38.917Z,25.70
2018-08-19T06:38:07.092Z,26.20
2018-08-19T06:40:36.084Z,26.30
2018-08-19T06:43:04.317Z,26.40
2018-08-19T06:45:32.657Z,26.90
2018-08-19T06:48:00.836Z,27.20
2018-08-19T06:50:30.717Z,27.20
2018-08-19T06:52:58.887Z,27.50
2018-08-19T06:55:27.058Z,27.90
2018-08-19T06:57:56.377Z,28.10
2018-08-19T07:00:25.407Z,28.40
2018-08-19T07:02:53.954Z,28.50
2018-08-19T07:05:22.153Z,28.00
2018-08-19T07:07:50.402Z,28.10
2018-08-19T07:10:26.301Z,28.30
2018-08-19T07:13:03.147Z,28.30
2018-08-19T07:15:31.407Z,28.60
2018-08-19T07:18:00.329Z,28.50
2018-08-19T07:20:28.607Z,28.40
2018-08-19T07:22:56.807Z,28.50
2018-08-19T07:25:25.012Z,28.20
2018-08-19T07:27:53.257Z,28.60
2018-08-19T07:30:21.477Z,28.60
2018-08-19T07:32:49.633Z,28.70
2018-08-19T07:35:17.942Z,28.80
2018-08-19T07:37:46.137Z,28.70
2018-08-19T07:40:14.321Z,28.80
2018-08-19T07:42:42.896Z,29.30
2018-08-19T07:45:11.065Z,29.60
2018-08-19T07:47:39.275Z,29.80
2018-08-19T07:50:09.154Z,30.00
2018-08-19T07:52:37.395Z,29.90
2018-08-19T07:55:05.722Z,30.50
2018-08-19T07:57:33.878Z,30.80
2018-08-19T08:00:02.074Z,30.70
2018-08-19T08:02:31.210Z,29.70
2018-08-19T08:04:59.418Z,29.70
2018-08-19T08:07:29.728Z,29.30
2018-08-19T08:09:57.995Z,28.50
2018-08-19T08:12:30.118Z,28.30
2018-08-19T08:14:58.905Z,28.20
2018-08-19T08:17:27.333Z,28.50
2018-08-19T08:20:00.905Z,28.50
2018-08-19T08:22:29.742Z,29.10
2018-08-19T08:24:58.138Z,29.20
2018-08-19T08:27:26.490Z,29.60
2018-08-19T08:29:54.859Z,29.70
2018-08-19T08:32:23.063Z,30.10
2018-08-19T08:34:51.266Z,30.40
2018-08-19T08:37:19.510Z,30.30
2018-08-19T08:39:49.909Z,30.30
2018-08-19T08:42:18.076Z,29.70
2018-08-19T08:44:46.322Z,29.50
2018-08-19T08:47:14.543Z,29.40
2018-08-19T08:49:47.106Z,29.50
2018-08-19T08:52:21.922Z,29.40
2018-08-19T08:54:53.778Z,29.30
2018-08-19T08:57:22.869Z,29.10
2018-08-19T08:59:51.557Z,29.20
2018-08-19T09:02:19.769Z,28.80
2018-08-19T09:04:48.345Z,29.00
2018-08-19T09:07:17.033Z,28.80
2018-08-19T09:09:46.178Z,29.10
2018-08-19T09:12:15.022Z,29.30
2018-08-19T09:14:43.619Z,29.40
2018-08-19T09:17:12.138Z,28.70
2018-08-19T09:19:41.530Z,28.70
2018-08-19T09:22:10.163Z,29.40
2018-08-19T09:24:38.665Z,30.10
2018-08-19T09:27:06.904Z,30.90
2018-08-19T09:29:35.118Z,31.20
2018-08-19T09:32:03.397Z,31.70
2018-08-19T09:34:31.578Z,31.80
2018-08-19T09:37:00.896Z,32.20
2018-08-19T09:39:29.366Z,32.00
2018-08-19T09:42:01.811Z,31.90
2018-08-19T09:44:30.137Z,30.90
2018-08-19T09:46:59.102Z,30.60
2018-08-19T09:49:27.378Z,31.10
2018-08-19T09:51:55.533Z,31.60
2018-08-19T09:54:29.211Z,32.00
2018-08-19T09:56:57.414Z,31.90
2018-08-19T09:59:26.374Z,32.10
2018-08-19T10:01:54.558Z,32.10
2018-08-19T10:04:24.733Z,32.40
2018-08-19T10:06:59.177Z,32.30
2018-08-19T10:09:30.470Z,32.00
2018-08-19T10:11:59.810Z,32.50
2018-08-19T10:14:27.969Z,33.40
2018-08-19T10:16:56.137Z,33.00
2018-08-19T10:19:24.373Z,32.20
2018-08-19T10:21:52.567Z,31.60
2018-08-19T10:24:22.853Z,32.20
2018-08-19T10:26:51.053Z,32.70
2018-08-19T10:29:19.242Z,32.70
2018-08-19T10:31:55.326Z,32.70
2018-08-19T10:34:25.672Z,32.60
2018-08-19T10:36:54.435Z,32.90
2018-08-19T10:39:23.180Z,32.00
2018-08-19T10:41:52.057Z,31.20
2018-08-19T10:44:20.289Z,30.90
2018-08-19T10:46:48.481Z,31.10
2018-08-19T10:49:16.708Z,31.80
2018-08-19T10:51:46.014Z,32.40
2018-08-19T10:54:15.142Z,32.70
2018-08-19T10:56:43.423Z,32.60
2018-08-19T10:59:15.317Z,32.50
2018-08-19T11:01:43.717Z,33.10
2018-08-19T11:04:11.895Z,33.50
2018-08-19T11:06:41.343Z,33.80
2018-08-19T11:09:09.442Z,33.80
2018-08-19T11:11:37.613Z,33.80
2018-08-19T11:14:08.221Z,32.90
2018-08-19T11:16:36.410Z,32.50
2018-08-19T11:19:05.210Z,32.80
2018-08-19T11:21:39.709Z,32.50
2018-08-19T11:24:20.851Z,32.90
2018-08-19T11:26:54.362Z,33.40
2018-08-19T11:29:22.575Z,33.30
2018-08-19T11:31:50.780Z,33.80
2018-08-19T11:34:19.268Z,33.40
2018-08-19T11:36:47.551Z,32.90
2018-08-19T11:39:16.818Z,32.70
2018-08-19T11:41:45.346Z,32.60
2018-08-19T11:44:16.127Z,32.70
2018-08-19T11:46:44.754Z,32.70
2018-08-19T11:49:17.160Z,32.90
2018-08-19T11:51:49.878Z,33.10
2018-08-19T11:54:19.100Z,32.40
2018-08-19T11:56:52.535Z,31.80
2018-08-19T11:59:21.813Z,31.70
2018-08-19T12:01:50.028Z,32.30
2018-08-19T12:04:18.179Z,32.90
2018-08-19T12:06:46.378Z,32.50
2018-08-19T12:09:14.591Z,32.10
2018-08-19T12:11:42.869Z,31.80
2018-08-19T12:14:13.505Z,31.80
2018-08-19T12:16:49.055Z,31.90
2018-08-19T12:19:19.216Z,32.10
2018-08-19T12:21:52.949Z,32.30
2018-08-19T12:24:23.814Z,32.40
2018-08-19T12:26:57.612Z,32.70
2018-08-19T12:29:27.560Z,32.70
2018-08-19T12:32:29.269Z,33.00
2018-08-19T12:34:58.652Z,33.20
2018-08-19T12:37:28.006Z,33.00
2018-08-19T12:39:56.813Z,32.80
2018-08-19T12:42:25.598Z,32.80
2018-08-19T12:45:01.322Z,32.60
2018-08-19T12:47:29.647Z,32.60
2018-08-19T12:49:59.188Z,32.90
2018-08-19T12:52:29.697Z,32.90
2018-08-19T12:55:16.729Z,33.10
2018-08-19T12:57:45.309Z,32.90
2018-08-19T13:00:15.678Z,32.70
2018-08-19T13:02:45.079Z,32.70
2018-08-19T13:05:14.389Z,33.10
2018-08-19T13:07:42.734Z,33.00
2018-08-19T13:10:10.989Z,33.00
2018-08-19T13:12:48.006Z,32.80
2018-08-19T13:15:16.590Z,32.50
2018-08-19T13:17:44.836Z,32.40
2018-08-19T13:20:13.068Z,32.60
2018-08-19T13:22:48.695Z,32.80
2018-08-19T13:25:17.570Z,32.90
2018-08-19T13:27:46.050Z,32.90
2018-08-19T13:30:14.878Z,32.60
2018-08-19T13:32:43.089Z,32.40
2018-08-19T13:35:11.257Z,32.80
2018-08-19T13:37:39.511Z,33.30
2018-08-19T13:40:09.215Z,33.40
2018-08-19T13:42:37.407Z,33.60
2018-08-19T13:45:11.172Z,33.90
2018-08-19T13:47:40.354Z,34.40
2018-08-19T13:50:08.776Z,34.70
2018-08-19T13:52:37.840Z,34.70
2018-08-19T13:55:08.170Z,34.80
2018-08-19T13:57:36.354Z,34.90
2018-08-19T14:00:07.993Z,34.90
2018-08-19T14:02:36.261Z,34.90
2018-08-19T14:05:04.470Z,35.20
2018-08-19T14:07:32.683Z,35.50
2018-08-19T14:10:00.866Z,35.70
2018-08-19T14:12:29.160Z,35.30
2018-08-19T14:14:57.348Z,34.70
2018-08-19T14:17:25.609Z,35.20
2018-08-19T14:19:53.794Z,35.40
2018-08-19T14:22:22.003Z,35.90
2018-08-19T14:24:50.205Z,36.40
2018-08-19T14:27:18.389Z,36.20
2018-08-19T14:29:46.633Z,35.70
2018-08-19T14:32:28.693Z,36.30
2018-08-19T14:34:57.802Z,36.80
2018-08-19T14:37:26.522Z,36.90
2018-08-19T14:39:54.931Z,37.20
2018-08-19T14:42:23.363Z,37.30
2018-08-19T14:44:51.545Z,37.70
2018-08-19T14:47:19.741Z,37.70
2018-08-19T14:49:47.967Z,37.50
2018-08-19T14:52:16.171Z,38.00
2018-08-19T14:54:44.384Z,38.50
2018-08-19T14:57:12.537Z,38.20
2018-08-19T14:59:40.715Z,38.00
2018-08-19T15:02:09.502Z,38.00
2018-08-19T15:04:37.822Z,38.30
2018-08-19T15:07:06.073Z,38.00
2018-08-19T15:09:35.019Z,38.00
2018-08-19T15:12:12.108Z,37.30
2018-08-19T15:14:40.402Z,37.00
2018-08-19T15:17:09.536Z,36.70
2018-08-19T15:19:45.964Z,37.00
2018-08-19T15:22:14.253Z,36.90
2018-08-19T15:24:42.455Z,37.20
2018-08-19T15:27:10.624Z,37.10
2018-08-19T15:29:42.035Z,37.50
2018-08-19T15:32:10.758Z,37.30
2018-08-19T15:34:39.347Z,36.80
2018-08-19T15:37:07.963Z,36.10
2018-08-19T15:39:36.460Z,36.00
2018-08-19T15:42:04.699Z,36.50
2018-08-19T15:44:32.883Z,37.00
2018-08-19T15:47:01.088Z,37.30
2018-08-19T15:49:29.291Z,37.00
2018-08-19T15:51:57.432Z,36.90
2018-08-19T15:54:26.682Z,36.80
2018-08-19T15:56:59.710Z,36.70
2018-08-19T15:59:31.333Z,36.90
2018-08-19T16:01:59.499Z,36.80
2018-08-19T16:04:28.025Z,36.70
2018-08-19T16:06:56.265Z,36.90
2018-08-19T16:09:26.407Z,37.00
2018-08-19T16:11:54.814Z,37.30
2018-08-19T16:14:25.090Z,37.60
2018-08-19T16:16:54.011Z,37.50
2018-08-19T16:19:22.378Z,37.40
2018-08-19T16:21:52.065Z,37.50
2018-08-19T16:24:20.270Z,36.60
2018-08-19T16:26:48.498Z,36.60
2018-08-19T16:29:16.674Z,36.70
2018-08-19T16:31:45.334Z,36.70
2018-08-19T16:34:14.467Z,36.10
2018-08-19T16:36:43.059Z,35.70
2018-08-19T16:39:12.804Z,35.70
2018-08-19T16:41:40.985Z,35.60
2018-08-19T16:44:09.597Z,35.50
2018-08-19T16:46:37.969Z,35.20
2018-08-19T16:49:06.342Z,35.20
2018-08-19T16:51:34.564Z,35.00
2018-08-19T16:54:02.761Z,34.80
2018-08-19T16:56:31.069Z,35.00
2018-08-19T16:58:59.529Z,35.50
2018-08-19T17:01:27.721Z,35.90
2018-08-19T17:03:55.965Z,36.00
2018-08-19T17:06:24.648Z,36.00
2018-08-19T17:08:52.808Z,35.60
2018-08-19T17:11:20.999Z,35.40
2018-08-19T17:13:49.194Z,35.10
2018-08-19T17:16:17.358Z,34.40
2018-08-19T17:18:45.567Z,33.40
2018-08-19T17:21:13.805Z,32.30
2018-08-19T17:23:42.009Z,31.40
2018-08-19T17:26:15.508Z,30.60
2018-08-19T17:28:44.022Z,30.00
2018-08-19T17:31:12.189Z,29.50
2018-08-19T17:33:40.354Z,29.10
2018-08-19T17:36:08.902Z,28.70
2018-08-19T17:38:37.398Z,28.40
2018-08-19T17:41:05.861Z,28.20
2018-08-19T17:43:37.813Z,27.90
2018-08-19T17:46:12.302Z,27.70
2018-08-19T17:48:41.401Z,27.40
2018-08-19T17:51:22.072Z,27.10
2018-08-19T17:53:50.582Z,26.90
2018-08-19T17:56:19.157Z,26.70
2018-08-19T17:58:48.209Z,26.50
2018-08-19T18:01:16.725Z,26.30
2018-08-19T18:03:45.586Z,26.20
2018-08-19T18:06:13.853Z,26.20
2018-08-19T18:08:51.408Z,26.00
2018-08-19T18:11:21.906Z,25.90
2018-08-19T18:13:50.251Z,25.80
2018-08-19T18:16:18.386Z,25.60
2018-08-19T18:18:47.378Z,25.50
2018-08-19T18:21:16.193Z,25.40
2018-08-19T18:23:45.688Z,25.20
2018-08-19T18:26:13.888Z,25.00
2018-08-19T18:28:46.241Z,24.90
2018-08-19T18:31:15.772Z,24.70
2018-08-19T18:33:51.771Z,24.60
2018-08-19T18:36:23.201Z,24.50
2018-08-19T18:38:51.444Z,24.40
2018-08-19T18:41:24.925Z,24.20
2018-08-19T18:43:55.174Z,24.10
2018-08-19T18:46:24.637Z,23.90
2018-08-19T18:49:13.356Z,23.70
2018-08-19T18:51:43.810Z,23.50
2018-08-19T18:54:33.790Z,23.50
2018-08-19T18:57:06.800Z,23.40
2018-08-19T18:59:34.999Z,23.30
2018-08-19T19:02:04.333Z,23.20
2018-08-19T19:04:32.506Z,23.00
2018-08-19T19:07:00.694Z,22.90
2018-08-19T19:09:35.946Z,22.90
2018-08-19T19:12:04.486Z,22.70
2018-08-19T19:14:32.677Z,22.60
2018-08-19T19:17:00.917Z,22.50
2018-08-19T19:19:29.962Z,22.50
2018-08-19T19:22:01.121Z,22.50
2018-08-19T19:24:34.714Z,22.40
2018-08-19T19:27:02.901Z,22.30
2018-08-19T19:29:31.075Z,22.20
2018-08-19T19:31:59.873Z,22.10
2018-08-19T19:34:30.266Z,21.90
2018-08-19T19:36:58.477Z,21.90
2018-08-19T19:39:26.639Z,21.80
2018-08-19T19:42:00.391Z,21.80
2018-08-19T19:44:30.532Z,21.70
2018-08-19T19:46:58.738Z,21.60
2018-08-19T19:49:27.059Z,21.50
2018-08-19T19:52:00.401Z,21.50
2018-08-19T19:54:29.985Z,21.40
2018-08-19T19:56:58.365Z,21.40
2018-08-19T19:59:30.184Z,21.30
2018-08-19T20:01:58.376Z,21.30
2018-08-19T20:04:26.587Z,21.30
2018-08-19T20:06:54.973Z,21.40
2018-08-19T20:09:23.156Z,21.40
2018-08-19T20:11:51.322Z,21.30
2018-08-19T20:14:19.479Z,21.30
2018-08-19T20:16:49.395Z,21.20
2018-08-19T20:19:17.961Z,21.20
2018-08-19T20:21:46.105Z,21.10
2018-08-19T20:24:14.274Z,20.90
2018-08-19T20:26:42.414Z,20.80
2018-08-19T20:29:10.669Z,20.70
2018-08-19T20:31:38.892Z,20.50
2018-08-19T20:34:07.042Z,20.30
2018-08-19T20:36:35.253Z,20.10
2018-08-19T20:39:06.181Z,20.10
2018-08-19T20:41:34.437Z,20.00
2018-08-19T20:44:02.662Z,19.90
2018-08-19T20:46:30.825Z,19.70
2018-08-19T20:48:59.001Z,19.60
2018-08-19T20:51:27.165Z,19.60
2018-08-19T20:53:55.444Z,19.60
2018-08-19T20:56:23.597Z,19.60
2018-08-19T20:58:51.814Z,19.60
2018-08-19T21:01:25.346Z,19.60
2018-08-19T21:03:53.601Z,19.50
2018-08-19T21:06:21.794Z,19.30
2018-08-19T21:08:50.209Z,19.20
2018-08-19T21:11:19.216Z,19.10
2018-08-19T21:13:47.428Z,18.90
2018-08-19T21:16:15.622Z,18.80
2018-08-19T21:18:43.882Z,18.70
2018-08-19T21:21:12.105Z,18.50
2018-08-19T21:23:40.241Z,18.50
2018-08-19T21:26:08.541Z,18.40
2018-08-19T21:28:36.705Z,18.30
2018-08-19T21:31:05.718Z,18.20
2018-08-19T21:33:34.396Z,18.10
2018-08-19T21:36:03.294Z,18.00
2018-08-19T21:38:31.857Z,17.90
2018-08-19T21:41:00.094Z,17.80
2018-08-19T21:43:29.898Z,17.70
2018-08-19T21:45:58.578Z,17.70
2018-08-19T21:48:26.781Z,17.60
2018-08-19T21:50:55.389Z,17.60
2018-08-19T21:53:23.609Z,17.50
2018-08-19T21:55:52.638Z,17.50
2018-08-19T21:58:20.893Z,17.50
2018-08-19T22:01:09.034Z,17.40
2018-08-19T22:03:42.759Z,17.40
2018-08-19T22:06:11.365Z,17.20
2018-08-19T22:08:39.601Z,17.20
2018-08-19T22:11:07.837Z,17.10
2018-08-19T22:13:36.010Z,17.10
2018-08-19T22:16:04.188Z,17.10
2018-08-19T22:18:32.426Z,17.10
2018-08-19T22:21:22.602Z,17.10
2018-08-19T22:23:52.973Z,17.00
2018-08-19T22:26:21.662Z,17.00
2018-08-19T22:29:06.994Z,16.90
2018-08-19T22:31:35.136Z,16.80
2018-08-19T22:34:03.325Z,16.80
2018-08-19T22:36:31.657Z,16.70
2018-08-19T22:38:59.865Z,16.70
2018-08-19T22:41:32.320Z,16.70
2018-08-19T22:44:00.510Z,16.60
2018-08-19T22:46:28.889Z,16.50
2018-08-19T22:48:57.541Z,16.40
2018-08-19T22:51:29.338Z,16.30
2018-08-19T22:53:57.541Z,16.20
2018-08-19T22:56:26.738Z,16.20
2018-08-19T22:58:54.959Z,16.20
2018-08-19T23:01:26.684Z,16.20
2018-08-19T23:04:01.050Z,16.20
2018-08-19T23:06:29.645Z,16.10
2018-08-19T23:08:57.789Z,16.10
2018-08-19T23:11:27.912Z,16.10
2018-08-19T23:14:08.426Z,16.10
2018-08-19T23:16:36.646Z,16.00
2018-08-19T23:19:04.833Z,16.00
2018-08-19T23:21:32.998Z,15.90
2018-08-19T23:24:01.198Z,15.80
2018-08-19T23:26:29.677Z,15.70
2018-08-19T23:28:58.006Z,15.80
2018-08-19T23:31:26.225Z,15.70
2018-08-19T23:33:54.366Z,15.70
2018-08-19T23:36:22.605Z,15.70
2018-08-19T23:38:50.888Z,15.70
2018-08-19T23:41:19.073Z,15.70
2018-08-19T23:43:47.657Z,15.60
2018-08-19T23:46:15.803Z,15.60
2018-08-19T23:48:43.966Z,15.50
2018-08-19T23:51:14.521Z,15.50
2018-08-19T23:53:42.697Z,15.50
2018-08-19T23:56:12.002Z,15.40
2018-08-19T23:58:41.611Z,15.30
